Time;durP1;ratioP1;P1;durP2;ratioP2;P2;SDS_P1;SDS_P2;PMS_P1;PMS_P2;Temp;Humidity;BMP_temperature;BMP_pressure;BME280_temperature;BME280_humidity;BME280_pressure;Samples;Min_cycle;Max_cycle;Signal;HPM_P1;HPM_P2
2021/12/29 00:01:03;;;;;;;16.23;9.57;;;;;;;8.23;100.00;100016.34;5063825;28;20028;-61
2021/12/29 00:03:29;;;;;;;19.20;9.35;;;;;;;8.28;100.00;100016.63;5057669;28;20029;-62
2021/12/29 00:05:54;;;;;;;16.65;9.43;;;;;;;8.25;100.00;100016.16;5059311;28;20025;-62
2021/12/29 00:08:19;;;;;;;17.08;9.68;;;;;;;8.27;100.00;100028.22;5054155;28;20036;-62
2021/12/29 00:10:47;;;;;;;21.00;10.05;;;;;;;8.27;100.00;100022.09;5053299;28;20458;-62
2021/12/29 00:13:12;;;;;;;17.52;9.75;;;;;;;8.27;100.00;100045.91;5066466;28;20248;-60
2021/12/29 00:15:38;;;;;;;21.75;11.00;;;;;;;8.26;100.00;100055.66;5060391;28;20612;-62
2021/12/29 00:18:04;;;;;;;25.48;10.95;;;;;;;8.27;100.00;100070.53;5056105;28;20400;-62
2021/12/29 00:20:31;;;;;;;20.10;10.70;;;;;;;8.29;100.00;100073.00;5056415;28;20094;-62
2021/12/29 00:23:02;;;;;;;20.60;10.35;;;;;;;8.30;100.00;100077.28;5059615;28;20025;-61
2021/12/29 00:25:28;;;;;;;24.00;11.30;;;;;;;8.30;100.00;100093.16;5058368;28;20081;-62
2021/12/29 00:27:59;;;;;;;21.38;10.60;;;;;;;8.29;100.00;100099.47;5056937;28;20036;-61
2021/12/29 00:30:26;;;;;;;25.60;11.50;;;;;;;8.30;100.00;100096.63;5058622;28;20374;-62
2021/12/29 00:32:52;;;;;;;20.02;10.32;;;;;;;8.29;100.00;100084.41;5059303;28;20507;-62
2021/12/29 00:35:18;;;;;;;19.27;10.20;;;;;;;8.28;100.00;100092.53;5057288;28;20066;-61
2021/12/29 00:37:43;;;;;;;23.65;9.60;;;;;;;8.30;100.00;100109.88;5056236;28;20052;-62
2021/12/29 00:40:10;;;;;;;15.38;8.02;;;;;;;8.34;100.00;100115.66;5052210;28;20039;-62
2021/12/29 00:42:36;;;;;;;18.83;8.23;;;;;;;8.30;100.00;100114.34;5054437;28;20175;-62
2021/12/29 00:45:02;;;;;;;18.63;9.02;;;;;;;8.31;100.00;100130.03;5057991;28;20532;-62
2021/12/29 00:47:32;;;;;;;17.58;9.15;;;;;;;8.35;100.00;100141.94;5061854;28;20025;-61
2021/12/29 00:49:59;;;;;;;15.18;9.27;;;;;;;8.31;100.00;100140.59;5055026;28;20028;-62
2021/12/29 00:52:24;;;;;;;13.45;8.93;;;;;;;8.30;100.00;100140.78;5052974;28;20029;-61
2021/12/29 00:54:50;;;;;;;15.40;9.77;;;;;;;8.29;100.00;100136.50;5057153;28;20032;-62
2021/12/29 00:57:15;;;;;;;14.27;9.73;;;;;;;8.31;100.00;100140.59;5052838;28;20020;-61
2021/12/29 00:59:40;;;;;;;17.15;10.68;;;;;;;8.31;100.00;100156.47;5053721;28;20044;-62
2021/12/29 01:02:06;;;;;;;17.55;10.93;;;;;;;8.30;100.00;100160.13;5057884;28;20030;-61
2021/12/29 01:04:32;;;;;;;14.20;10.52;;;;;;;8.30;100.00;100156.66;5055471;28;20366;-61
2021/12/29 01:06:57;;;;;;;16.38;11.30;;;;;;;8.28;100.00;100163.94;5057970;28;20113;-62
2021/12/29 01:09:22;;;;;;;17.80;11.38;;;;;;;8.27;100.00;100167.59;5055165;28;20029;-61
2021/12/29 01:11:48;;;;;;;16.73;10.88;;;;;;;8.30;100.00;100173.34;5058655;28;20032;-62
2021/12/29 01:14:13;;;;;;;14.25;10.95;;;;;;;8.30;100.00;100183.09;5057935;28;20017;-61
2021/12/29 01:16:39;;;;;;;16.27;10.77;;;;;;;8.33;100.00;100178.31;5058597;28;20064;-61
2021/12/29 01:19:08;;;;;;;17.30;11.30;;;;;;;8.33;100.00;100196.84;5058840;28;20024;-62
2021/12/29 01:21:35;;;;;;;13.75;10.32;;;;;;;8.35;100.00;100199.31;5059606;28;20097;-62
2021/12/29 01:24:02;;;;;;;14.98;10.60;;;;;;;8.36;100.00;100207.06;5057295;28;20032;-60
2021/12/29 01:26:28;;;;;;;15.02;10.65;;;;;;;8.36;100.00;100217.66;5057136;28;20108;-62
2021/12/29 01:28:53;;;;;;;16.17;10.45;;;;;;;8.35;100.00;100218.66;5052251;28;20078;-61
2021/12/29 01:31:18;;;;;;;18.10;10.93;;;;;;;8.35;100.00;100225.78;5058029;28;20403;-61
2021/12/29 01:33:43;;;;;;;18.88;10.43;;;;;;;8.35;100.00;100234.53;5058011;28;20487;-62
2021/12/29 01:36:09;;;;;;;17.25;10.63;;;;;;;8.30;100.00;100228.09;5058805;28;20531;-62
2021/12/29 01:38:34;;;;;;;16.35;10.13;;;;;;;8.37;100.00;100242.28;5051780;28;20029;-61
2021/12/29 01:40:59;;;;;;;18.38;10.73;;;;;;;8.35;100.00;100245.13;5058872;28;20033;-61
2021/12/29 01:43:25;;;;;;;19.67;9.70;;;;;;;8.34;100.00;100259.34;5057904;28;20129;-62
2021/12/29 01:45:51;;;;;;;16.08;9.25;;;;;;;8.35;100.00;100253.06;5057446;28;20476;-61
2021/12/29 01:48:16;;;;;;;16.00;8.60;;;;;;;8.33;100.00;100260.34;5052836;28;20438;-61
2021/12/29 01:50:45;;;;;;;14.25;8.88;;;;;;;8.35;100.00;100258.34;5053580;28;20021;-61
2021/12/29 01:53:13;;;;;;;15.15;8.82;;;;;;;8.35;100.00;100266.28;5062152;28;20152;-62
2021/12/29 01:55:39;;;;;;;17.17;9.23;;;;;;;8.33;100.00;100268.28;5052552;28;20017;-61
2021/12/29 01:58:06;;;;;;;15.93;8.73;;;;;;;8.32;100.00;100271.88;5054143;28;20103;-62
2021/12/29 02:00:35;;;;;;;12.85;8.75;;;;;;;8.33;100.00;100268.28;5053064;28;20021;-62
2021/12/29 02:03:01;;;;;;;12.70;8.98;;;;;;;8.32;100.00;100268.41;5056732;28;20021;-61
2021/12/29 02:05:26;;;;;;;16.23;8.98;;;;;;;8.31;100.00;100278.16;5055291;28;20032;-62
2021/12/29 02:07:52;;;;;;;14.50;8.52;;;;;;;8.30;100.00;100270.41;5062290;28;20036;-62
2021/12/29 02:10:18;;;;;;;15.27;8.82;;;;;;;8.29;100.00;100282.81;5065708;28;20408;-61
2021/12/29 02:12:44;;;;;;;14.27;8.80;;;;;;;8.30;100.00;100289.75;5062035;28;20029;-62
2021/12/29 02:15:11;;;;;;;14.80;8.05;;;;;;;8.30;100.00;100287.09;5061210;28;20039;-62
2021/12/29 02:17:37;;;;;;;12.75;7.68;;;;;;;8.29;100.00;100300.50;5054545;28;20261;-62
2021/12/29 02:20:08;;;;;;;11.77;7.70;;;;;;;8.32;100.00;100297.50;5055783;28;20512;-62
2021/12/29 02:22:42;;;;;;;11.38;8.15;;;;;;;8.31;100.00;100303.81;5056692;28;20109;-62
2021/12/29 02:27:45;;;;;;;14.02;9.20;;;;;;;8.30;100.00;100316.19;5058442;28;20124;-62
2021/12/29 02:30:11;;;;;;;14.05;9.57;;;;;;;8.32;100.00;100306.28;5063222;28;20037;-62
2021/12/29 02:32:38;;;;;;;15.32;9.48;;;;;;;8.32;100.00;100308.09;5058732;28;20067;-61
2021/12/29 02:35:04;;;;;;;18.65;10.65;;;;;;;8.29;100.00;100317.19;5056420;28;20443;-61
2021/12/29 02:37:30;;;;;;;16.90;10.82;;;;;;;8.29;100.00;100322.50;5060534;28;20029;-61
2021/12/29 02:39:55;;;;;;;17.73;11.63;;;;;;;8.26;100.00;100320.19;5063584;28;20106;-62
2021/12/29 02:42:25;;;;;;;18.10;11.82;;;;;;;8.24;100.00;100322.16;5061264;28;20074;-61
2021/12/29 02:44:52;;;;;;;17.85;11.40;;;;;;;8.23;100.00;100330.28;5059079;28;20068;-62
2021/12/29 02:47:18;;;;;;;15.45;10.10;;;;;;;8.18;100.00;100328.13;5063058;28;20484;-59
2021/12/29 02:49:45;;;;;;;15.07;10.30;;;;;;;8.17;100.00;100321.19;5060722;28;20032;-58
2021/12/29 02:52:13;;;;;;;14.32;10.00;;;;;;;8.13;100.00;100325.19;5066341;28;20036;-59
2021/12/29 02:54:38;;;;;;;15.13;9.98;;;;;;;8.13;100.00;100325.19;5059604;28;20396;-59
2021/12/29 02:57:03;;;;;;;12.45;9.90;;;;;;;8.12;100.00;100331.47;5060972;28;20032;-59
2021/12/29 02:59:29;;;;;;;15.82;9.73;;;;;;;8.14;100.00;100320.72;5059871;28;20468;-58
2021/12/29 03:01:54;;;;;;;17.10;10.45;;;;;;;8.13;100.00;100317.25;5056255;28;20492;-59
2021/12/29 03:04:20;;;;;;;20.00;12.10;;;;;;;8.09;100.00;100329.13;5058651;28;20025;-59
2021/12/29 03:06:45;;;;;;;19.60;11.30;;;;;;;8.10;100.00;100345.84;5061606;28;20028;-58
2021/12/29 03:09:13;;;;;;;17.73;10.80;;;;;;;8.09;100.00;100360.84;5057974;28;20329;-59
2021/12/29 03:11:41;;;;;;;24.65;12.70;;;;;;;8.07;100.00;100361.03;5066920;28;20024;-59
2021/12/29 03:14:08;;;;;;;17.93;11.10;;;;;;;8.05;100.00;100346.31;5055170;28;20115;-59
2021/12/29 03:16:34;;;;;;;19.58;13.05;;;;;;;8.06;100.00;100361.19;5053899;28;20271;-59
2021/12/29 03:19:00;;;;;;;21.23;12.45;;;;;;;8.03;100.00;100361.53;5056450;28;20077;-60
2021/12/29 03:21:25;;;;;;;24.42;13.35;;;;;;;8.03;100.00;100375.56;5052761;28;20021;-59
2021/12/29 03:23:51;;;;;;;23.02;14.07;;;;;;;8.02;100.00;100376.56;5061622;28;20039;-59
2021/12/29 03:26:16;;;;;;;23.67;13.95;;;;;;;8.02;100.00;100386.31;5052643;28;20036;-59
2021/12/29 03:28:43;;;;;;;33.00;14.77;;;;;;;8.03;100.00;100393.25;5061859;28;20040;-59
2021/12/29 03:31:11;;;;;;;25.73;14.55;;;;;;;8.03;100.00;100391.44;5057626;28;20029;-59
2021/12/29 03:33:37;;;;;;;23.80;15.10;;;;;;;8.02;100.00;100396.91;5055258;28;20016;-59
2021/12/29 03:36:04;;;;;;;29.63;15.50;;;;;;;8.02;100.00;100396.91;5061724;28;20035;-59
2021/12/29 03:38:33;;;;;;;28.63;16.95;;;;;;;8.01;100.00;100401.34;5063974;28;20032;-59
2021/12/29 03:40:59;;;;;;;28.73;16.45;;;;;;;8.02;100.00;100399.53;5058675;28;20086;-59
2021/12/29 03:43:27;;;;;;;31.35;16.92;;;;;;;8.01;100.00;100398.72;5064699;28;20017;-59
2021/12/29 03:45:52;;;;;;;28.63;17.70;;;;;;;8.01;100.00;100390.78;5055858;28;20051;-58
2021/12/29 03:48:20;;;;;;;30.33;17.63;;;;;;;7.98;100.00;100401.69;5060518;28;20492;-59
2021/12/29 03:50:46;;;;;;;34.92;18.38;;;;;;;8.00;100.00;100414.75;5060445;28;20032;-59
2021/12/29 03:53:13;;;;;;;33.30;19.00;;;;;;;7.96;100.00;100426.63;5057637;28;20024;-59
2021/12/29 03:55:43;;;;;;;27.33;17.15;;;;;;;7.94;100.00;100425.97;5059301;28;20051;-60
2021/12/29 03:58:08;;;;;;;33.05;17.63;;;;;;;7.96;100.00;100424.81;5057785;28;20347;-59
2021/12/29 04:00:34;;;;;;;29.95;17.42;;;;;;;7.94;100.00;100425.97;5053609;28;20560;-58
2021/12/29 04:02:59;;;;;;;29.42;16.50;;;;;;;7.91;100.00;100429.78;5056520;28;20036;-59
2021/12/29 04:05:25;;;;;;;27.90;16.60;;;;;;;7.92;100.00;100427.97;5055421;28;20023;-59
2021/12/29 04:07:53;;;;;;;28.80;16.85;;;;;;;7.89;100.00;100426.47;5060640;28;20772;-59
2021/12/29 04:10:18;;;;;;;32.67;17.00;;;;;;;7.84;100.00;100430.59;5057878;28;20032;-59
2021/12/29 04:12:44;;;;;;;30.95;18.13;;;;;;;7.87;100.00;100435.56;5059827;28;20033;-59
2021/12/29 04:15:11;;;;;;;30.55;18.30;;;;;;;7.88;100.00;100432.75;5063996;28;20032;-59
2021/12/29 04:17:39;;;;;;;32.05;19.17;;;;;;;7.88;100.00;100437.22;5060810;28;20025;-59
2021/12/29 04:23:10;;;;;;;35.85;19.02;;;;;;;7.85;100.00;100443.66;5054712;28;20067;-59
2021/12/29 04:25:38;;;;;;;38.53;19.23;;;;;;;7.85;100.00;100445.47;5057009;28;20025;-59
2021/12/29 04:28:08;;;;;;;33.60;18.08;;;;;;;7.84;100.00;100443.81;5055309;28;20021;-59
2021/12/29 04:30:34;;;;;;;33.35;18.88;;;;;;;7.87;100.00;100446.13;5059725;28;20551;-59
2021/12/29 04:32:59;;;;;;;35.20;19.40;;;;;;;7.84;100.00;100449.94;5055393;28;20500;-59
2021/12/29 04:35:25;;;;;;;35.38;19.55;;;;;;;7.85;100.00;100453.41;5055123;28;20067;-59
2021/12/29 04:37:51;;;;;;;34.20;18.95;;;;;;;7.84;100.00;100459.69;5058812;28;20048;-59
2021/12/29 04:40:18;;;;;;;43.33;21.95;;;;;;;7.83;100.00;100465.97;5056736;28;20090;-59
2021/12/29 04:42:43;;;;;;;33.15;20.20;;;;;;;7.84;100.00;100470.25;5056827;28;20025;-59
2021/12/29 04:45:10;;;;;;;37.92;20.52;;;;;;;7.84;100.00;100481.66;5057239;28;20032;-59
2021/12/29 04:47:39;;;;;;;38.55;21.63;;;;;;;7.84;100.00;100478.19;5062722;28;20024;-59
2021/12/29 04:50:13;;;;;;;40.65;20.27;;;;;;;7.83;100.00;100480.00;5060307;28;20499;-59
2021/12/29 04:52:38;;;;;;;37.45;20.70;;;;;;;7.83;100.00;100492.41;5060851;28;20024;-59
2021/12/29 04:55:05;;;;;;;40.00;19.92;;;;;;;7.83;100.00;100487.09;5056082;28;20534;-59
2021/12/29 04:57:31;;;;;;;40.15;21.08;;;;;;;7.83;100.00;100501.16;5057030;28;20111;-59
2021/12/29 04:59:56;;;;;;;37.50;20.83;;;;;;;7.84;100.00;100499.34;5058570;28;20461;-59
2021/12/29 05:02:21;;;;;;;37.20;21.92;;;;;;;7.82;100.00;100496.03;5058854;28;20036;-59
2021/12/29 05:04:56;;;;;;;40.65;21.00;;;;;;;7.83;100.00;100501.16;5056918;28;20485;-59
2021/12/29 05:10:06;;;;;;;35.45;21.25;;;;;;;7.87;100.00;100518.34;5056761;28;20400;-59
2021/12/29 05:12:31;;;;;;;40.38;21.75;;;;;;;7.87;100.00;100505.13;5060316;28;20468;-59
2021/12/29 05:14:56;;;;;;;34.28;21.00;;;;;;;7.89;100.00;100502.31;5058874;28;20028;-59
2021/12/29 05:17:22;;;;;;;35.65;20.83;;;;;;;7.89;100.00;100503.16;5059062;28;20029;-59
2021/12/29 05:19:47;;;;;;;37.63;20.52;;;;;;;7.90;100.00;100503.97;5053643;28;20090;-59
2021/12/29 05:22:12;;;;;;;38.85;20.45;;;;;;;7.89;100.00;100507.59;5058818;28;20028;-59
2021/12/29 05:24:38;;;;;;;36.08;19.05;;;;;;;7.92;100.00;100502.00;5053049;28;20476;-59
2021/12/29 05:27:04;;;;;;;36.72;20.50;;;;;;;7.91;100.00;100503.81;5059494;28;20031;-59
2021/12/29 05:29:29;;;;;;;35.08;19.27;;;;;;;7.92;100.00;100512.56;5057719;28;20043;-59
2021/12/29 05:31:54;;;;;;;38.60;20.58;;;;;;;7.92;100.00;100515.22;5055893;28;20025;-59
2021/12/29 05:34:20;;;;;;;30.20;19.25;;;;;;;7.91;100.00;100519.66;5056065;28;20325;-59
2021/12/29 05:36:45;;;;;;;32.50;18.60;;;;;;;7.92;100.00;100518.69;5054227;28;20028;-59
2021/12/29 05:39:11;;;;;;;33.50;18.77;;;;;;;7.89;100.00;100513.72;5056779;28;20024;-59
2021/12/29 05:41:36;;;;;;;36.60;19.65;;;;;;;7.90;100.00;100514.53;5060304;28;20089;-59
2021/12/29 05:44:01;;;;;;;32.95;18.40;;;;;;;7.92;100.00;100520.50;5053877;28;20036;-59
2021/12/29 05:46:26;;;;;;;34.58;17.95;;;;;;;7.90;100.00;100520.66;5054711;28;20387;-59
2021/12/29 05:48:52;;;;;;;34.45;18.40;;;;;;;7.90;100.00;100515.38;5056925;28;20065;-59
2021/12/29 05:51:17;;;;;;;29.17;18.20;;;;;;;7.85;100.00;100512.41;5050731;28;20047;-59
2021/12/29 05:53:43;;;;;;;33.78;18.60;;;;;;;7.90;100.00;100514.53;5053850;28;20295;-59
2021/12/29 05:56:09;;;;;;;35.15;18.83;;;;;;;7.92;100.00;100517.84;5059939;28;20021;-59
2021/12/29 05:58:35;;;;;;;30.95;17.92;;;;;;;7.89;100.00;100513.72;5053473;28;20413;-59
2021/12/29 06:01:01;;;;;;;30.40;18.42;;;;;;;7.90;100.00;100518.00;5059871;28;20047;-59
2021/12/29 06:03:27;;;;;;;32.42;17.63;;;;;;;7.89;100.00;100521.66;5054293;28;20025;-59
2021/12/29 06:05:52;;;;;;;33.50;17.60;;;;;;;7.90;100.00;100525.94;5066183;28;20439;-59
2021/12/29 06:08:17;;;;;;;28.50;16.65;;;;;;;7.88;100.00;100532.38;5057346;28;20024;-59
2021/12/29 06:10:43;;;;;;;31.70;17.75;;;;;;;7.87;100.00;100531.56;5065446;28;20041;-59
2021/12/29 06:13:08;;;;;;;32.05;17.60;;;;;;;7.85;100.00;100530.91;5058678;28;20404;-59
2021/12/29 06:15:33;;;;;;;31.98;17.92;;;;;;;7.85;100.00;100549.41;5062452;28;20112;-59
2021/12/29 06:17:59;;;;;;;29.50;16.97;;;;;;;7.85;100.00;100545.94;5062576;28;20112;-59
2021/12/29 06:20:24;;;;;;;35.17;18.60;;;;;;;7.84;100.00;100547.75;5057847;28;20033;-58
2021/12/29 06:22:50;;;;;;;36.40;18.02;;;;;;;7.84;100.00;100557.50;5066594;28;20051;-59
2021/12/29 06:25:19;;;;;;;34.38;18.80;;;;;;;7.85;100.00;100573.19;5059642;28;20483;-59
2021/12/29 06:27:45;;;;;;;34.63;17.90;;;;;;;7.86;100.00;100576.66;5057056;28;20039;-59
2021/12/29 06:30:13;;;;;;;35.67;17.77;;;;;;;7.84;100.00;100571.53;5053667;28;20028;-60
2021/12/29 06:32:39;;;;;;;27.42;18.02;;;;;;;7.84;100.00;100578.66;5062076;28;20468;-58
2021/12/29 06:35:07;;;;;;;32.22;17.85;;;;;;;7.82;100.00;100575.34;5056037;28;20029;-59
2021/12/29 06:37:32;;;;;;;32.25;18.35;;;;;;;7.81;100.00;100581.59;5054221;28;20037;-59
2021/12/29 06:39:58;;;;;;;32.40;17.70;;;;;;;7.80;100.00;100580.75;5043097;28;20029;-59
2021/12/29 06:42:24;;;;;;;29.30;17.93;;;;;;;7.79;100.00;100581.72;5062688;28;20020;-59
2021/12/29 06:44:49;;;;;;;32.10;18.20;;;;;;;7.75;100.00;100575.13;5063114;28;20016;-59
2021/12/29 06:47:15;;;;;;;32.80;19.02;;;;;;;7.74;100.00;100584.84;5067195;28;20051;-59
2021/12/29 06:49:40;;;;;;;35.47;18.17;;;;;;;7.73;100.00;100580.56;5062746;28;20070;-62
2021/12/29 06:52:07;;;;;;;33.63;18.37;;;;;;;7.72;100.00;100581.56;5061421;28;20100;-62
2021/12/29 06:54:35;;;;;;;32.23;18.37;;;;;;;7.72;100.00;100586.84;5060121;28;20517;-61
2021/12/29 06:57:01;;;;;;;33.20;17.87;;;;;;;7.71;100.00;100590.47;5059450;28;20435;-61
2021/12/29 06:59:27;;;;;;;33.17;17.75;;;;;;;7.71;100.00;100594.94;5060333;28;20468;-61
2021/12/29 07:01:52;;;;;;;29.10;17.70;;;;;;;7.70;100.00;100590.63;5063257;28;20028;-61
2021/12/29 07:04:17;;;;;;;32.30;17.02;;;;;;;7.63;100.00;100581.69;5057362;28;20450;-62
2021/12/29 07:06:43;;;;;;;32.90;18.08;;;;;;;7.70;100.00;100588.81;5057519;28;20947;-61
2021/12/29 07:09:08;;;;;;;36.20;17.50;;;;;;;7.70;100.00;100596.75;5060337;28;20020;-61
2021/12/29 07:11:36;;;;;;;32.78;17.27;;;;;;;7.72;100.00;100607.16;5061835;28;20779;-61
2021/12/29 07:14:03;;;;;;;34.38;17.23;;;;;;;7.69;100.00;100607.47;5062278;28;20044;-61
2021/12/29 07:16:29;;;;;;;35.42;17.20;;;;;;;7.69;100.00;100612.75;5055261;28;20034;-61
2021/12/29 07:18:54;;;;;;;28.50;16.52;;;;;;;7.68;100.00;100619.03;5061140;28;20056;-62
2021/12/29 07:21:20;;;;;;;28.95;15.88;;;;;;;7.66;100.00;100624.47;5054379;28;20053;-61
2021/12/29 07:23:46;;;;;;;32.43;17.27;;;;;;;7.66;100.00;100629.75;5056999;28;20020;-61
2021/12/29 07:26:14;;;;;;;30.53;16.33;;;;;;;7.62;100.00;100631.06;5055144;28;20024;-61
2021/12/29 07:28:39;;;;;;;28.33;15.27;;;;;;;7.64;100.00;100631.72;5060408;28;20021;-62
2021/12/29 07:31:05;;;;;;;32.78;16.10;;;;;;;7.64;100.00;100634.38;5061366;28;20090;-61
2021/12/29 07:33:32;;;;;;;29.67;16.20;;;;;;;7.63;100.00;100640.66;5057178;28;20028;-61
2021/12/29 07:35:57;;;;;;;28.43;15.77;;;;;;;7.63;100.00;100640.66;5055581;28;20423;-61
2021/12/29 07:38:23;;;;;;;25.95;14.93;;;;;;;7.63;100.00;100645.09;5046870;28;20536;-61
2021/12/29 07:40:48;;;;;;;26.52;15.60;;;;;;;7.62;100.00;100648.72;5060317;28;20468;-62
2021/12/29 07:43:13;;;;;;;25.83;15.45;;;;;;;7.60;100.00;100646.25;5062420;28;20012;-62
2021/12/29 07:45:42;;;;;;;27.10;15.02;;;;;;;7.60;100.00;100650.72;5064865;28;20025;-61
2021/12/29 07:48:09;;;;;;;24.00;14.93;;;;;;;7.59;100.00;100655.16;5055957;28;20184;-61
2021/12/29 07:50:34;;;;;;;27.60;15.07;;;;;;;7.59;100.00;100654.34;5054519;28;20026;-61
2021/12/29 07:53:00;;;;;;;27.90;14.60;;;;;;;7.59;100.00;100647.22;5052338;28;20020;-62
2021/12/29 07:55:25;;;;;;;31.38;15.43;;;;;;;7.59;100.00;100649.06;5057444;28;20069;-62
2021/12/29 07:57:50;;;;;;;28.38;13.73;;;;;;;7.58;100.00;100645.56;5058353;28;20830;-61
2021/12/29 08:00:16;;;;;;;24.67;14.57;;;;;;;7.58;100.00;100642.94;5056413;28;20028;-62
2021/12/29 08:02:44;;;;;;;26.75;14.85;;;;;;;7.57;100.00;100633.34;5058470;28;20020;-62
2021/12/29 08:05:10;;;;;;;24.27;15.00;;;;;;;7.58;100.00;100644.75;5056589;28;20220;-60
2021/12/29 08:07:36;;;;;;;26.55;14.63;;;;;;;7.56;100.00;100642.25;5054856;28;20021;-62
2021/12/29 08:10:02;;;;;;;30.60;15.50;;;;;;;7.55;100.00;100648.53;5050396;28;20036;-60
2021/12/29 08:12:27;;;;;;;29.00;15.27;;;;;;;7.55;100.00;100647.72;5060328;28;20021;-62
2021/12/29 08:14:53;;;;;;;26.88;15.32;;;;;;;7.54;100.00;100648.69;5060800;28;20027;-62
2021/12/29 08:17:18;;;;;;;25.73;15.13;;;;;;;7.54;100.00;100656.63;5055765;28;20028;-62
2021/12/29 08:19:44;;;;;;;25.50;14.30;;;;;;;7.52;100.00;100656.78;5057640;28;20024;-61
2021/12/29 08:22:09;;;;;;;25.63;13.73;;;;;;;7.51;100.00;100648.97;5057470;28;20340;-62
2021/12/29 08:24:35;;;;;;;25.25;12.75;;;;;;;7.52;100.00;100648.84;5053140;28;20021;-61
2021/12/29 08:27:00;;;;;;;23.83;12.60;;;;;;;7.52;100.00;100654.13;5057152;28;20035;-61
2021/12/29 08:29:26;;;;;;;22.95;12.23;;;;;;;7.52;100.00;100656.78;5056120;28;20047;-61
2021/12/29 08:31:51;;;;;;;29.15;12.40;;;;;;;7.50;100.00;100653.44;5061297;28;20176;-61
2021/12/29 08:34:17;;;;;;;21.38;11.95;;;;;;;7.52;100.00;100655.91;5060081;28;20102;-61
2021/12/29 08:36:43;;;;;;;21.75;11.15;;;;;;;7.49;100.00;100659.69;5043815;28;20384;-62
2021/12/29 08:39:08;;;;;;;22.90;11.68;;;;;;;7.53;100.00;100657.59;5050134;28;20364;-61
2021/12/29 08:41:34;;;;;;;19.80;10.57;;;;;;;7.53;100.00;100649.69;5067172;28;20016;-61
2021/12/29 08:43:59;;;;;;;21.67;10.88;;;;;;;7.52;100.00;100659.41;5058385;28;20029;-61
2021/12/29 08:46:25;;;;;;;24.88;10.70;;;;;;;7.55;100.00;100669.69;5059414;28;20040;-61
2021/12/29 08:48:51;;;;;;;24.42;11.10;;;;;;;7.56;100.00;100678.44;5055141;28;20021;-61
2021/12/29 08:51:18;;;;;;;18.75;10.68;;;;;;;7.57;100.00;100673.00;5060582;28;20027;-61
2021/12/29 08:53:44;;;;;;;22.95;10.43;;;;;;;7.58;100.00;100668.53;5056216;28;20036;-61
2021/12/29 08:56:10;;;;;;;19.13;10.57;;;;;;;7.59;100.00;100664.91;5059469;28;20025;-61
2021/12/29 08:58:35;;;;;;;21.50;10.23;;;;;;;7.60;100.00;100659.47;5053759;28;20104;-61
2021/12/29 09:01:01;;;;;;;21.27;11.23;;;;;;;7.62;100.00;100651.38;5054712;28;20086;-61
2021/12/29 09:03:26;;;;;;;25.23;11.18;;;;;;;7.64;100.00;100671.38;5068682;28;20078;-61
2021/12/29 09:05:52;;;;;;;19.50;10.90;;;;;;;7.66;100.00;100674.69;5062283;28;20021;-62
2021/12/29 09:08:17;;;;;;;19.33;10.85;;;;;;;7.67;100.00;100663.13;5058567;28;20023;-62
2021/12/29 09:10:44;;;;;;;17.80;11.02;;;;;;;7.69;100.00;100665.63;5058131;28;20480;-61
2021/12/29 09:13:11;;;;;;;20.50;11.35;;;;;;;7.69;100.00;100662.97;5053023;28;20029;-62
2021/12/29 09:15:36;;;;;;;19.15;10.88;;;;;;;7.72;100.00;100665.31;5062486;28;20025;-61
2021/12/29 09:18:01;;;;;;;21.08;11.77;;;;;;;7.73;100.00;100659.84;5053597;28;20029;-61
2021/12/29 09:20:30;;;;;;;19.83;11.63;;;;;;;7.77;100.00;100658.56;5060638;28;20043;-61
2021/12/29 09:23:06;;;;;;;26.05;12.73;;;;;;;7.78;100.00;100659.38;5050727;28;20029;-61
2021/12/29 09:25:33;;;;;;;24.48;12.35;;;;;;;7.80;100.00;100643.38;5058119;28;20461;-61
2021/12/29 09:27:59;;;;;;;20.25;12.07;;;;;;;7.82;100.00;100633.50;5054506;28;20025;-61
2021/12/29 09:30:28;;;;;;;22.50;12.65;;;;;;;7.83;100.00;100637.78;5058611;28;20050;-61
2021/12/29 09:32:54;;;;;;;20.38;13.15;;;;;;;7.82;100.00;100639.59;5052411;28;20028;-61
2021/12/29 09:35:20;;;;;;;20.08;12.45;;;;;;;7.83;100.00;100645.72;5050339;28;20419;-61
2021/12/29 09:37:47;;;;;;;20.70;13.13;;;;;;;7.84;100.00;100642.09;5060800;28;20119;-61
2021/12/29 09:40:13;;;;;;;22.63;12.95;;;;;;;7.84;100.00;100653.50;5057930;28;20116;-61
2021/12/29 09:42:39;;;;;;;19.65;13.05;;;;;;;7.80;100.00;100646.84;5057451;28;20037;-61
2021/12/29 09:45:07;;;;;;;24.05;13.77;;;;;;;7.82;100.00;100655.47;5055297;28;20115;-62
2021/12/29 09:47:34;;;;;;;20.05;13.93;;;;;;;7.84;100.00;100644.72;5060132;28;20567;-61
2021/12/29 09:50:00;;;;;;;19.08;13.07;;;;;;;7.86;100.00;100646.22;5057833;28;20487;-62
2021/12/29 09:52:29;;;;;;;23.50;14.52;;;;;;;7.86;99.82;100640.13;5059800;28;20497;-61
2021/12/29 09:54:56;;;;;;;21.55;13.00;;;;;;;7.87;99.86;100642.59;5062664;28;20082;-62
2021/12/29 09:57:21;;;;;;;19.15;13.00;;;;;;;7.90;99.59;100641.44;5065653;28;20032;-60
2021/12/29 09:59:46;;;;;;;21.77;13.10;;;;;;;7.92;99.51;100642.94;5057366;28;20128;-61
2021/12/29 10:02:12;;;;;;;22.27;13.75;;;;;;;7.95;99.19;100641.81;5059728;28;20136;-62
2021/12/29 10:04:37;;;;;;;22.45;13.15;;;;;;;7.97;99.65;100632.72;5061982;28;20031;-61
2021/12/29 10:07:14;;;;;;;19.83;13.48;;;;;;;8.02;99.35;100648.09;5058077;28;20104;-61
2021/12/29 10:09:39;;;;;;;21.83;13.50;;;;;;;8.08;99.35;100650.09;5061629;28;20078;-61
2021/12/29 10:12:10;;;;;;;19.83;13.32;;;;;;;8.15;99.10;100651.16;5061897;28;20028;-61
2021/12/29 10:14:35;;;;;;;20.25;13.10;;;;;;;8.20;99.29;100655.97;5059211;28;20027;-62
2021/12/29 10:17:01;;;;;;;17.85;11.35;;;;;;;8.20;98.48;100648.03;5061649;28;20029;-62
2021/12/29 10:19:26;;;;;;;18.50;11.52;;;;;;;8.20;98.09;100648.84;5054813;28;20075;-62
2021/12/29 10:21:51;;;;;;;18.50;11.20;;;;;;;8.20;97.92;100637.44;5057594;28;20046;-61
2021/12/29 10:24:19;;;;;;;21.77;12.30;;;;;;;8.20;97.63;100629.50;5061180;28;20484;-61
2021/12/29 10:26:49;;;;;;;19.15;12.10;;;;;;;8.22;97.65;100619.59;5053644;28;20033;-61
2021/12/29 10:29:18;;;;;;;19.35;12.32;;;;;;;8.23;97.77;100616.78;5054217;28;20032;-62
2021/12/29 10:31:48;;;;;;;21.60;11.90;;;;;;;8.25;97.66;100608.69;5058814;28;20033;-61
2021/12/29 10:34:20;;;;;;;;;;;;;;;8.28;97.48;100598.59;5060756;28;20029;-60
2021/12/29 10:37:07;;;;;;;18.23;10.73;;;;;;;8.27;97.43;100601.41;5056616;28;20419;-61
2021/12/29 10:39:43;;;;;;;16.77;10.77;;;;;;;8.28;97.40;100601.25;5056799;28;20037;-61
2021/12/29 10:42:21;;;;;;;20.98;10.77;;;;;;;8.30;97.48;100601.91;5060623;28;20033;-62
2021/12/29 10:44:52;;;;;;;18.63;10.57;;;;;;;8.31;97.35;100603.56;5062815;28;20028;-62
2021/12/29 10:47:25;;;;;;;16.40;10.25;;;;;;;8.34;97.26;100616.50;5060927;28;20037;-62
2021/12/29 10:49:52;;;;;;;17.73;9.77;;;;;;;8.35;96.71;100612.03;5056705;28;20083;-62
2021/12/29 10:52:34;;;;;;;17.27;9.88;;;;;;;8.36;96.39;100605.75;5060556;28;20037;-61
2021/12/29 10:55:00;;;;;;;20.10;10.48;;;;;;;8.35;96.61;100602.28;5060041;28;20399;-62
2021/12/29 10:57:25;;;;;;;19.10;10.00;;;;;;;8.34;96.35;100603.28;5060195;28;20025;-61
2021/12/29 10:59:57;;;;;;;15.95;9.75;;;;;;;8.32;96.36;100607.88;5064150;28;20435;-62
2021/12/29 11:02:26;;;;;;;16.52;10.00;;;;;;;8.33;96.61;100622.78;5056636;28;20093;-61
2021/12/29 11:04:57;;;;;;;20.15;10.40;;;;;;;8.34;96.71;100628.91;5056034;28;20061;-62
2021/12/29 11:07:25;;;;;;;21.88;10.23;;;;;;;8.34;96.98;100624.44;5052725;28;20158;-61
2021/12/29 11:09:50;;;;;;;15.27;9.00;;;;;;;8.33;96.80;100621.94;5054410;28;20434;-62
2021/12/29 11:12:16;;;;;;;17.90;9.30;;;;;;;8.33;96.94;100628.09;5053389;28;20488;-61
2021/12/29 11:14:43;;;;;;;15.82;9.00;;;;;;;8.32;96.45;100623.75;5059160;28;20048;-61
2021/12/29 11:17:25;;;;;;;18.63;9.25;;;;;;;8.32;96.80;100626.38;5058879;28;20547;-61